Meteo Giornale » Osservazioni meteo Argentina » Esquel Aerodrome

ore: 15:00 - Osservazioni Meteo Esquel Aerodrome
Lat. 42° 56' S Lon. 71° 9' W Alt. 789 metri s.l.m.

coperto_neve

3 °C

Acquaneve

Temp. 24 Ore

1 °C

7 °C

Ovest/Sud-Ovest

11.1 Km/h

Dew point 0 °C

Umidità 80 %

Visibilità  4 Km

Il sole sorge alle ore 08:11

Il sole tramonta alle ore 19:17

Data e Ora Cielo e Fenomeni T °C DP °C Um. % Pres. hPa Vis. km Vento km/h
Oggi h: 15:00 coperto_neve Acquaneve 3 0 80 1014 4 O/SO 11.1
Oggi h: 14:00 molto_nuvoloso Molto Nuvoloso 5 -1 65 1014 10 N 14.8
Oggi h: 13:16 coperto_neve Neve 4 -2 64 1014 2 O/SO 18.5
Oggi h: 13:00 molto_nuvoloso Pioggia nelle vicinanze 6 -3 52 1014 8 O/SO 18.5
Oggi h: 12:00 nuvoloso Nuvoloso 6 -5 45 1013 10 O 11.1
Oggi h: 11:00 poco_nuvoloso Pioggia nelle vicinanze 5 -7 41 1013 10 O/SO 13
Oggi h: 10:00 poco_nuvoloso Poco Nuvoloso 4 -7 44 1013 10 O 9.3
Oggi h: 09:00 poco_nuvoloso Poco Nuvoloso 2 -3 69 1013 10 N 7.4
Oggi h: 08:00 nuvoloso Nuvoloso 1 -2 80 1012 10 N 7.4
Oggi h: 07:00 nuvoloso Nuvoloso 2 -3 69 1012 10 SO 9.3
Oggi h: 06:00 nuvoloso Nuvoloso 1 -2 80 1011 10 SO 9.3
Oggi h: 05:00 nuvoloso Nuvoloso 2 -2 74 1011 10 O/SO 13
Oggi h: 04:00 poco_nuvoloso Poco Nuvoloso 2 -1 80 1010 10 O/SO 13
Oggi h: 03:00 poco_nuvoloso Poco Nuvoloso 1 -1 86 1010 10 SO 9.3
Oggi h: 02:00 nuvoloso Nuvoloso 2 -2 74 1010 10 O/SO 9.3
Oggi h: 01:00 poco_nuvoloso Poco Nuvoloso 3 -3 64 1009 10 O/SO 11.1
Oggi h: 00:00 poco_nuvoloso Poco Nuvoloso 3 -3 64 1009 10 O 16.7
Ieri h: 23:00 nuvoloso Nuvoloso 4 0 75 1008 10 O 9.3
Ieri h: 22:00 coperto_pioggia Pioggia 5 -4 52 1008 10 O 16.7
Ieri h: 21:00 poco_nuvoloso Poco Nuvoloso 3 -2 69 1007 10 O 7.4
Ieri h: 20:00 nuvoloso Nuvoloso 4 -1 69 1007 10 N 5.5
Ieri h: 19:00 nuvoloso Nuvoloso 5 0 70 1007 10 N 5.5
Ieri h: 18:00 nuvoloso Nuvoloso 5 0 70 1007 10 SO 7.4
Ieri h: 17:00 nuvoloso Nuvoloso 6 -2 56 1007 10 SO 11.1
Ieri h: 16:00 nuvoloso Nuvoloso 7 -2 52 1007 10 O/SO 7.4